createdAt,value
2022-11-01T00:06:11.453Z,100.00
2022-11-01T00:16:33.086Z,100.00
2022-11-01T00:26:54.419Z,100.00
2022-11-01T00:37:15.749Z,100.00
2022-11-01T00:47:37.116Z,100.00
2022-11-01T00:57:58.577Z,100.00
2022-11-01T01:08:20.917Z,100.00
2022-11-01T01:18:42.249Z,100.00
2022-11-01T01:29:03.686Z,100.00
2022-11-01T01:39:25.077Z,100.00
2022-11-01T01:49:47.099Z,100.00
2022-11-01T02:00:08.990Z,100.00
2022-11-01T02:10:31.007Z,100.00
2022-11-01T02:21:03.570Z,100.00
2022-11-01T02:31:35.614Z,100.00
2022-11-01T02:42:05.487Z,100.00
2022-11-01T02:52:28.956Z,100.00
2022-11-01T03:03:03.154Z,100.00
2022-11-01T03:13:47.886Z,100.00
2022-11-01T03:24:16.711Z,100.00
2022-11-01T03:34:39.014Z,100.00
2022-11-01T03:45:04.225Z,100.00
2022-11-01T03:55:25.542Z,100.00
2022-11-01T04:05:46.877Z,100.00
2022-11-01T04:16:28.066Z,100.00
2022-11-01T04:26:49.412Z,100.00
2022-11-01T04:37:11.291Z,100.00
2022-11-01T04:47:32.742Z,99.76
2022-11-01T04:57:54.324Z,99.14
2022-11-01T05:08:15.795Z,98.87
2022-11-01T05:18:40.763Z,98.16
2022-11-01T05:29:08.819Z,98.68
2022-11-01T05:39:34.783Z,98.05
2022-11-01T05:49:56.103Z,97.56
2022-11-01T06:00:17.600Z,97.61
2022-11-01T06:10:38.938Z,97.18
2022-11-01T06:21:00.370Z,97.93
2022-11-01T06:31:22.113Z,97.25
2022-11-01T06:41:43.441Z,96.91
2022-11-01T06:52:05.104Z,96.71
2022-11-01T07:02:29.713Z,96.58
2022-11-01T07:12:51.489Z,96.02
2022-11-01T07:23:14.566Z,96.74
2022-11-01T07:33:36.211Z,96.50
2022-11-01T07:43:57.607Z,95.45
2022-11-01T07:54:18.945Z,92.47
2022-11-01T08:04:40.361Z,87.26
2022-11-01T08:15:04.659Z,81.08
2022-11-01T08:25:26.391Z,75.12
2022-11-01T08:35:50.732Z,76.14
2022-11-01T08:46:12.215Z,75.33
2022-11-01T08:56:33.675Z,76.69
2022-11-01T09:06:55.556Z,76.57
2022-11-01T09:17:16.898Z,74.58
2022-11-01T09:27:38.800Z,70.44
2022-11-01T09:38:01.245Z,71.14
2022-11-01T09:48:24.070Z,73.05
2022-11-01T09:59:04.335Z,69.17
2022-11-01T10:09:45.803Z,68.64
2022-11-01T10:20:09.068Z,68.58
2022-11-01T10:30:34.655Z,69.50
2022-11-01T10:41:00.998Z,68.44
2022-11-01T10:51:27.826Z,67.59
2022-11-01T11:07:50.633Z,68.86
2022-11-01T11:18:25.715Z,68.37
2022-11-01T11:28:51.669Z,71.92
2022-11-01T11:39:37.683Z,70.59
2022-11-01T11:50:00.636Z,73.80
2022-11-01T12:00:27.354Z,71.42
2022-11-01T12:10:57.455Z,72.10
2022-11-01T12:21:33.674Z,74.18
2022-11-01T12:32:00.674Z,73.54
2022-11-01T12:42:32.948Z,72.55
2022-11-01T12:53:05.210Z,72.12
2022-11-01T13:03:42.180Z,72.00
2022-11-01T13:14:41.367Z,70.39
2022-11-01T13:25:19.322Z,72.96
2022-11-01T13:35:59.022Z,69.74
2022-11-01T13:46:38.593Z,70.06
2022-11-01T13:57:12.533Z,73.14
2022-11-01T14:07:43.284Z,71.17
2022-11-01T14:18:05.157Z,72.40
2022-11-01T14:28:30.807Z,72.73
2022-11-01T14:39:09.237Z,71.62
2022-11-01T14:49:42.251Z,71.81
2022-11-01T15:00:23.064Z,72.41
2022-11-01T15:10:44.904Z,74.44
2022-11-01T15:21:06.911Z,74.36
2022-11-01T15:31:29.153Z,76.38
2022-11-01T15:41:51.540Z,75.44
2022-11-01T15:52:35.028Z,74.09
2022-11-01T16:03:07.582Z,75.13
2022-11-01T16:13:31.991Z,77.09
2022-11-01T16:24:09.550Z,75.77
2022-11-01T16:34:34.492Z,78.21
2022-11-01T16:44:56.517Z,77.96
2022-11-01T16:55:18.397Z,79.45
2022-11-01T17:05:41.178Z,78.87
2022-11-01T17:16:03.832Z,76.03
2022-11-01T17:26:26.502Z,78.72
2022-11-01T17:36:49.742Z,79.22
2022-11-01T17:47:14.590Z,79.55
2022-11-01T17:57:36.082Z,79.44
2022-11-01T18:07:58.688Z,79.60
2022-11-01T18:19:01.649Z,77.62
2022-11-01T18:29:23.919Z,79.50
2022-11-01T18:40:01.117Z,78.06
2022-11-01T18:50:26.067Z,78.23
2022-11-01T19:01:08.529Z,77.25
2022-11-01T19:11:31.538Z,78.67
2022-11-01T19:21:59.024Z,76.99
2022-11-01T19:32:24.488Z,76.53
2022-11-01T19:42:46.370Z,76.60
2022-11-01T19:53:32.391Z,73.44
2022-11-01T20:03:56.766Z,76.52
2022-11-01T20:14:18.323Z,76.80
2022-11-01T20:24:39.783Z,76.21
2022-11-01T20:35:01.835Z,77.41
2022-11-01T20:45:23.371Z,76.98
2022-11-01T20:55:44.957Z,77.01
2022-11-01T21:06:11.622Z,74.99
2022-11-01T21:16:33.029Z,77.34
2022-11-01T21:27:14.759Z,75.32
2022-11-01T21:37:36.167Z,76.91
2022-11-01T21:48:02.862Z,78.12
2022-11-01T21:58:24.698Z,78.55
2022-11-01T22:08:46.134Z,77.88
2022-11-01T22:19:07.627Z,78.02
2022-11-01T22:29:29.058Z,77.75
2022-11-01T22:39:53.047Z,78.48
2022-11-01T22:50:26.371Z,77.59
2022-11-01T23:00:49.742Z,78.15
2022-11-01T23:11:44.702Z,78.80
2022-11-01T23:22:18.865Z,78.68
2022-11-01T23:32:40.194Z,79.45
2022-11-01T23:43:02.042Z,78.75
2022-11-01T23:53:33.750Z,79.16
